createdAt,value
2022-12-03T00:02:20.760Z,81.08
2022-12-03T00:04:47.633Z,81.72
2022-12-03T00:07:14.401Z,81.49
2022-12-03T00:09:41.259Z,81.64
2022-12-03T00:12:08.025Z,81.94
2022-12-03T00:14:36.163Z,82.11
2022-12-03T00:17:05.578Z,81.80
2022-12-03T00:19:32.345Z,81.78
2022-12-03T00:21:59.100Z,81.84
2022-12-03T00:24:25.832Z,81.81
2022-12-03T00:26:52.535Z,82.29
2022-12-03T00:29:19.282Z,82.53
2022-12-03T00:31:46.053Z,82.46
2022-12-03T00:34:12.866Z,82.20
2022-12-03T00:36:40.831Z,81.51
2022-12-03T00:39:07.646Z,81.79
2022-12-03T00:41:34.375Z,81.53
2022-12-03T00:44:01.409Z,82.23
2022-12-03T00:46:28.201Z,82.03
2022-12-03T00:48:54.983Z,82.14
2022-12-03T00:51:21.762Z,82.13
2022-12-03T00:53:48.606Z,81.79
2022-12-03T00:56:15.651Z,82.68
2022-12-03T00:58:42.431Z,81.71
2022-12-03T01:01:09.203Z,82.23
2022-12-03T01:03:36.067Z,81.96
2022-12-03T01:06:03.108Z,81.46
2022-12-03T01:08:29.880Z,82.19
2022-12-03T01:10:56.588Z,82.41
2022-12-03T01:13:23.366Z,82.27
2022-12-03T01:15:50.984Z,82.24
2022-12-03T01:18:17.900Z,82.12
2022-12-03T01:20:44.763Z,82.44
2022-12-03T01:23:13.100Z,82.38
2022-12-03T01:25:39.919Z,82.17
2022-12-03T01:28:06.698Z,81.84
2022-12-03T01:30:53.456Z,81.50
2022-12-03T01:33:20.237Z,81.56
2022-12-03T01:35:47.012Z,81.47
2022-12-03T01:38:13.725Z,81.17
2022-12-03T01:40:40.466Z,81.18
2022-12-03T01:43:07.174Z,82.25
2022-12-03T01:45:33.956Z,81.51
2022-12-03T01:48:00.809Z,81.40
2022-12-03T01:50:30.911Z,80.85
2022-12-03T01:53:00.771Z,81.36
2022-12-03T01:55:28.059Z,80.38
2022-12-03T01:57:57.803Z,80.32
2022-12-03T02:00:29.534Z,80.49
2022-12-03T02:02:59.776Z,80.51
2022-12-03T02:05:31.287Z,80.74
2022-12-03T02:07:59.566Z,79.99
2022-12-03T02:10:29.478Z,79.91
2022-12-03T02:12:56.161Z,80.14
2022-12-03T02:15:23.166Z,80.01
2022-12-03T02:17:51.115Z,79.89
2022-12-03T02:20:18.144Z,80.21
2022-12-03T02:23:10.493Z,80.27
2022-12-03T02:25:37.565Z,79.95
2022-12-03T02:28:05.871Z,80.08
2022-12-03T02:30:32.854Z,80.18
2022-12-03T02:32:59.888Z,80.89
2022-12-03T02:35:29.002Z,79.74
2022-12-03T02:38:20.835Z,80.05
2022-12-03T02:40:50.236Z,80.17
2022-12-03T02:43:17.851Z,80.50
2022-12-03T02:45:46.751Z,80.84
2022-12-03T02:48:16.700Z,80.83
2022-12-03T02:50:49.217Z,81.06
2022-12-03T02:53:19.812Z,81.46
2022-12-03T02:55:46.865Z,81.75
2022-12-03T02:58:14.449Z,80.89
2022-12-03T03:00:42.507Z,80.61
2022-12-03T03:03:09.494Z,81.27
2022-12-03T03:05:37.735Z,81.38
2022-12-03T03:08:05.205Z,82.09
2022-12-03T03:10:33.857Z,81.46
2022-12-03T03:13:02.991Z,80.95
2022-12-03T03:15:29.781Z,81.67
2022-12-03T03:17:56.467Z,81.41
2022-12-03T03:20:23.238Z,81.67
2022-12-03T03:22:50.006Z,82.21
2022-12-03T03:25:20.684Z,82.13
2022-12-03T03:27:47.449Z,82.16
2022-12-03T03:30:15.237Z,81.95
2022-12-03T03:32:42.687Z,82.31
2022-12-03T03:35:10.186Z,82.18
2022-12-03T03:37:37.052Z,82.72
2022-12-03T03:40:04.157Z,82.45
2022-12-03T03:42:30.948Z,81.99
2022-12-03T03:44:58.431Z,82.75
2022-12-03T03:47:25.781Z,82.30
2022-12-03T03:49:53.112Z,81.95
2022-12-03T03:52:20.026Z,82.38
2022-12-03T03:54:47.253Z,82.54
2022-12-03T03:57:14.412Z,81.61
2022-12-03T03:59:41.321Z,82.54
2022-12-03T04:02:21.857Z,81.81
2022-12-03T04:04:49.167Z,81.38
2022-12-03T04:07:16.333Z,81.30
2022-12-03T04:09:43.715Z,80.42
2022-12-03T04:12:31.058Z,81.11
2022-12-03T04:14:58.521Z,81.00
2022-12-03T04:17:25.421Z,81.16
2022-12-03T04:19:52.163Z,81.09
2022-12-03T04:22:37.903Z,81.52
2022-12-03T04:25:24.115Z,80.72
2022-12-03T04:28:11.715Z,81.22
2022-12-03T04:30:38.627Z,81.90
2022-12-03T04:33:24.003Z,81.74
2022-12-03T04:35:50.804Z,81.78
2022-12-03T04:38:17.687Z,81.73
2022-12-03T04:41:04.157Z,81.70
2022-12-03T04:43:33.334Z,81.46
2022-12-03T04:46:01.196Z,81.63
2022-12-03T04:48:29.728Z,81.77
2022-12-03T04:50:56.428Z,81.65
2022-12-03T04:53:23.174Z,82.01
2022-12-03T04:55:49.900Z,81.75
2022-12-03T04:58:16.755Z,81.20
2022-12-03T05:00:43.542Z,81.81
2022-12-03T05:03:10.315Z,81.92
2022-12-03T05:05:37.077Z,82.17
2022-12-03T05:08:03.940Z,81.63
2022-12-03T05:10:30.767Z,82.15
2022-12-03T05:12:57.572Z,81.85
2022-12-03T05:15:24.364Z,81.32
2022-12-03T05:17:51.035Z,81.40
2022-12-03T05:20:36.422Z,81.69
2022-12-03T05:23:03.207Z,81.08
2022-12-03T05:25:29.925Z,81.07
2022-12-03T05:27:56.719Z,80.67
2022-12-03T05:30:23.608Z,80.70
2022-12-03T05:32:50.441Z,80.78
2022-12-03T05:35:17.452Z,81.02
2022-12-03T05:37:44.286Z,80.94
2022-12-03T05:40:11.815Z,80.46
2022-12-03T05:42:54.164Z,80.46
2022-12-03T05:45:25.335Z,80.72
2022-12-03T05:47:53.306Z,80.07
2022-12-03T05:50:25.325Z,80.86
2022-12-03T05:52:54.695Z,80.03
2022-12-03T05:55:21.672Z,80.32
2022-12-03T05:57:48.484Z,81.04
2022-12-03T06:00:18.333Z,81.00
2022-12-03T06:02:45.489Z,80.71
2022-12-03T06:05:13.768Z,80.86
2022-12-03T06:07:41.007Z,81.05
2022-12-03T06:10:10.478Z,80.82
2022-12-03T06:12:37.330Z,80.28
2022-12-03T06:15:04.664Z,80.63
2022-12-03T06:17:31.761Z,80.29
2022-12-03T06:19:58.505Z,80.27
2022-12-03T06:22:25.317Z,80.76
2022-12-03T06:24:52.500Z,80.24
2022-12-03T06:27:19.502Z,80.44
2022-12-03T06:29:46.338Z,80.66
2022-12-03T06:32:13.114Z,80.73
2022-12-03T06:34:40.094Z,80.61
2022-12-03T06:37:06.897Z,81.26
2022-12-03T06:39:33.643Z,80.14
2022-12-03T06:42:01.670Z,80.30
2022-12-03T06:44:28.618Z,80.12
2022-12-03T06:46:55.429Z,79.49
2022-12-03T06:49:22.226Z,79.14
2022-12-03T06:51:48.996Z,79.27
2022-12-03T06:54:15.764Z,78.22
2022-12-03T06:56:45.459Z,78.68
2022-12-03T06:59:12.783Z,79.17
2022-12-03T07:01:39.854Z,78.73
2022-12-03T07:04:06.665Z,78.79
2022-12-03T07:06:33.429Z,78.37
2022-12-03T07:09:00.199Z,77.06
2022-12-03T07:11:40.056Z,76.28
2022-12-03T07:14:08.085Z,76.43
2022-12-03T07:16:35.575Z,77.09
2022-12-03T07:19:02.923Z,75.99
2022-12-03T07:21:29.839Z,77.15
2022-12-03T07:23:56.647Z,77.39
2022-12-03T07:26:23.492Z,78.04
2022-12-03T07:28:50.334Z,78.44
2022-12-03T07:31:17.179Z,78.47
2022-12-03T07:33:43.992Z,78.47
2022-12-03T07:36:10.825Z,79.28
2022-12-03T07:38:37.826Z,79.09
2022-12-03T07:41:04.614Z,79.13
2022-12-03T07:43:31.625Z,78.63
2022-12-03T07:45:58.377Z,79.40
2022-12-03T07:48:25.112Z,79.22
2022-12-03T07:50:51.970Z,79.63
2022-12-03T07:53:18.752Z,79.48
2022-12-03T07:55:45.544Z,79.85
2022-12-03T07:58:12.272Z,79.59
2022-12-03T08:00:39.231Z,78.89
2022-12-03T08:03:06.132Z,78.74
2022-12-03T08:08:18.080Z,76.82
2022-12-03T08:10:44.892Z,76.34
2022-12-03T08:13:15.023Z,76.65
2022-12-03T08:15:42.351Z,76.16
2022-12-03T08:18:18.301Z,76.10
2022-12-03T08:20:48.463Z,75.79
2022-12-03T08:23:20.459Z,76.25
2022-12-03T08:25:48.132Z,75.16
2022-12-03T08:28:23.054Z,75.17
2022-12-03T08:31:13.188Z,74.66
2022-12-03T08:33:40.369Z,75.13
2022-12-03T08:36:17.000Z,74.94
2022-12-03T08:38:56.148Z,76.12
2022-12-03T08:41:42.238Z,75.43
2022-12-03T08:44:24.323Z,75.48
2022-12-03T08:47:02.541Z,75.15
2022-12-03T08:49:29.364Z,74.66
2022-12-03T08:52:01.277Z,74.36
2022-12-03T08:54:28.163Z,74.83
2022-12-03T08:56:55.033Z,74.45
2022-12-03T08:59:27.006Z,74.33
2022-12-03T09:01:55.115Z,74.77
2022-12-03T09:04:45.867Z,74.51
2022-12-03T09:07:12.737Z,73.66
2022-12-03T09:09:39.463Z,74.58
2022-12-03T09:12:06.477Z,75.32
2022-12-03T09:14:33.314Z,74.69
2022-12-03T09:17:00.201Z,74.25
2022-12-03T09:19:27.942Z,73.84
2022-12-03T09:21:55.054Z,74.14
2022-12-03T09:24:21.869Z,74.29
2022-12-03T09:26:49.146Z,73.40
2022-12-03T09:29:15.922Z,73.35
2022-12-03T09:31:42.812Z,72.41
2022-12-03T09:34:11.190Z,72.45
2022-12-03T09:36:38.117Z,72.41
2022-12-03T09:39:05.404Z,72.26
2022-12-03T09:41:32.431Z,72.05
2022-12-03T09:44:07.784Z,72.15
2022-12-03T09:46:38.825Z,71.91
2022-12-03T09:49:12.248Z,71.43
2022-12-03T09:51:42.522Z,71.39
2022-12-03T09:54:26.176Z,70.82
2022-12-03T09:56:54.631Z,70.36
2022-12-03T09:59:23.154Z,69.97
2022-12-03T10:01:50.111Z,69.42
2022-12-03T10:04:17.762Z,68.93
2022-12-03T10:06:46.225Z,69.65
2022-12-03T10:09:17.286Z,70.97
2022-12-03T10:11:44.174Z,70.72
2022-12-03T10:14:12.516Z,69.33
2022-12-03T10:16:40.582Z,68.58
2022-12-03T10:19:09.887Z,69.26
2022-12-03T10:21:37.653Z,69.19
2022-12-03T10:24:23.066Z,68.17
2022-12-03T10:26:51.661Z,68.16
2022-12-03T10:29:19.692Z,67.94
2022-12-03T10:31:57.825Z,67.75
2022-12-03T10:34:35.103Z,67.96
2022-12-03T10:37:17.459Z,67.71
2022-12-03T10:40:13.297Z,68.73
2022-12-03T10:42:41.044Z,68.61
2022-12-03T10:45:17.988Z,68.71
2022-12-03T10:48:02.963Z,68.94
2022-12-03T10:50:29.904Z,68.59
2022-12-03T10:52:56.701Z,68.97
2022-12-03T10:55:23.792Z,69.19
2022-12-03T10:57:50.600Z,69.35
2022-12-03T11:00:19.096Z,67.92
2022-12-03T11:02:49.423Z,67.59
2022-12-03T11:05:26.734Z,68.25
2022-12-03T11:07:53.748Z,68.40
2022-12-03T11:10:21.004Z,68.88
2022-12-03T11:13:25.399Z,68.58
2022-12-03T11:15:53.168Z,68.97
2022-12-03T11:18:38.382Z,68.64
2022-12-03T11:21:11.182Z,68.55
2022-12-03T11:23:47.065Z,69.18
2022-12-03T11:26:19.924Z,68.65
2022-12-03T11:28:46.791Z,68.01
2022-12-03T11:31:42.908Z,68.67
2022-12-03T11:34:18.994Z,69.65
2022-12-03T11:37:10.767Z,69.57
2022-12-03T11:39:49.551Z,69.56
2022-12-03T11:42:28.447Z,69.90
2022-12-03T11:45:04.236Z,70.13
2022-12-03T11:47:40.042Z,70.29
2022-12-03T11:50:22.116Z,71.32
2022-12-03T11:53:07.691Z,70.60
2022-12-03T11:55:40.605Z,69.75
2022-12-03T11:58:18.583Z,69.96
2022-12-03T12:00:52.473Z,69.57
2022-12-03T12:03:25.382Z,69.55
2022-12-03T12:06:11.570Z,69.76
2022-12-03T12:08:40.821Z,69.28
2022-12-03T12:11:19.712Z,70.07
2022-12-03T12:13:51.473Z,69.85
2022-12-03T12:16:39.803Z,69.52
2022-12-03T12:19:29.415Z,69.58
2022-12-03T12:22:17.271Z,69.74
2022-12-03T12:24:52.676Z,70.29
2022-12-03T12:27:30.226Z,70.10
2022-12-03T12:30:06.486Z,70.05
2022-12-03T12:32:47.312Z,69.51
2022-12-03T12:35:19.918Z,69.46
2022-12-03T12:38:00.185Z,69.77
2022-12-03T12:40:30.008Z,69.49
2022-12-03T12:43:08.226Z,69.58
2022-12-03T12:45:41.550Z,70.33
2022-12-03T12:48:21.428Z,69.30
2022-12-03T12:50:57.636Z,70.46
2022-12-03T12:53:31.370Z,70.00
2022-12-03T12:56:13.537Z,70.84
2022-12-03T12:58:41.850Z,70.34
2022-12-03T13:01:16.046Z,71.23
2022-12-03T13:03:42.786Z,71.28
2022-12-03T13:06:14.373Z,71.42
2022-12-03T13:08:45.352Z,71.57
2022-12-03T13:11:34.424Z,71.83
2022-12-03T13:14:20.990Z,71.20
2022-12-03T13:16:49.162Z,71.65
2022-12-03T13:19:27.488Z,72.40
2022-12-03T13:22:00.301Z,73.47
2022-12-03T13:24:30.297Z,73.29
2022-12-03T13:26:57.404Z,73.79
2022-12-03T13:29:25.969Z,73.43
2022-12-03T13:31:59.023Z,74.03
2022-12-03T13:34:28.169Z,74.06
2022-12-03T13:36:58.470Z,73.96
2022-12-03T13:39:32.316Z,74.60
2022-12-03T13:42:38.747Z,74.17
2022-12-03T13:45:17.563Z,74.08
2022-12-03T13:47:48.674Z,74.51
2022-12-03T13:50:37.085Z,73.98
2022-12-03T13:53:18.871Z,74.57
2022-12-03T13:55:47.919Z,74.76
2022-12-03T13:58:14.701Z,74.65
2022-12-03T14:00:41.539Z,74.69
2022-12-03T14:03:08.753Z,74.64
2022-12-03T14:05:35.478Z,75.26
2022-12-03T14:08:02.855Z,75.02
2022-12-03T14:10:29.909Z,74.61
2022-12-03T14:12:57.225Z,74.17
2022-12-03T14:15:25.005Z,74.35
2022-12-03T14:17:52.019Z,74.83
2022-12-03T14:20:19.507Z,74.23
2022-12-03T14:22:46.304Z,74.33
2022-12-03T14:25:13.038Z,73.79
2022-12-03T14:27:39.777Z,73.65
2022-12-03T14:30:07.317Z,73.88
2022-12-03T14:32:34.061Z,73.47
2022-12-03T14:35:03.966Z,74.16
2022-12-03T14:37:35.146Z,74.18
2022-12-03T14:40:03.759Z,73.69
2022-12-03T14:42:30.524Z,73.77
2022-12-03T14:44:57.664Z,74.16
2022-12-03T14:47:24.572Z,73.36
2022-12-03T14:49:52.369Z,73.92
2022-12-03T14:52:19.895Z,74.09
2022-12-03T14:54:46.792Z,74.29
2022-12-03T14:57:14.665Z,73.14
2022-12-03T14:59:42.271Z,73.60
2022-12-03T15:02:10.223Z,73.67
2022-12-03T15:04:38.162Z,73.86
2022-12-03T15:07:05.864Z,73.90
2022-12-03T15:09:32.614Z,73.35
2022-12-03T15:12:00.219Z,73.39
2022-12-03T15:14:27.209Z,73.51
2022-12-03T15:16:53.988Z,74.13
2022-12-03T15:19:20.752Z,73.96
2022-12-03T15:21:47.656Z,74.16
2022-12-03T15:24:14.460Z,73.36
2022-12-03T15:26:41.185Z,74.29
2022-12-03T15:29:08.002Z,74.13
2022-12-03T15:31:34.924Z,74.66
2022-12-03T15:34:01.796Z,74.08
2022-12-03T15:36:28.569Z,74.45
2022-12-03T15:38:55.310Z,74.59
2022-12-03T15:41:24.241Z,74.85
2022-12-03T15:43:52.542Z,75.03
2022-12-03T15:46:22.777Z,74.42
2022-12-03T15:48:49.704Z,73.98
2022-12-03T15:51:16.544Z,74.42
2022-12-03T15:53:43.650Z,74.55
2022-12-03T15:56:12.118Z,75.26
2022-12-03T15:58:39.880Z,74.73
2022-12-03T16:01:07.336Z,74.58
2022-12-03T16:03:34.208Z,74.65
2022-12-03T16:06:00.968Z,73.90
2022-12-03T16:08:27.682Z,74.71
2022-12-03T16:10:54.480Z,74.17
2022-12-03T16:13:21.293Z,74.59
2022-12-03T16:15:48.190Z,74.41
2022-12-03T16:18:15.017Z,74.27
2022-12-03T16:20:41.952Z,74.06
2022-12-03T16:23:08.811Z,74.59
2022-12-03T16:25:35.578Z,74.79
2022-12-03T16:28:02.434Z,75.53
2022-12-03T16:30:29.706Z,75.02
2022-12-03T16:32:56.591Z,74.81
2022-12-03T16:35:23.470Z,74.29
2022-12-03T16:37:50.224Z,74.65
2022-12-03T16:40:17.053Z,74.87
2022-12-03T16:42:43.843Z,75.10
2022-12-03T16:45:10.993Z,74.76
2022-12-03T16:47:37.953Z,75.33
2022-12-03T16:50:07.790Z,75.17
2022-12-03T16:52:35.438Z,74.94
2022-12-03T16:55:02.281Z,74.48
2022-12-03T16:57:33.360Z,74.66
2022-12-03T17:00:01.093Z,74.74
2022-12-03T17:02:28.021Z,74.51
2022-12-03T17:04:54.932Z,75.38
2022-12-03T17:07:21.836Z,75.20
2022-12-03T17:09:49.090Z,75.18
2022-12-03T17:12:16.027Z,75.11
2022-12-03T17:14:42.932Z,76.48
2022-12-03T17:17:09.766Z,76.65
2022-12-03T17:19:36.657Z,76.22
2022-12-03T17:22:03.466Z,76.54
2022-12-03T17:24:30.785Z,77.38
2022-12-03T17:26:57.559Z,76.96
2022-12-03T17:29:24.387Z,77.14
2022-12-03T17:31:51.173Z,76.08
2022-12-03T17:34:17.955Z,77.41
2022-12-03T17:36:44.746Z,76.42
2022-12-03T17:39:11.517Z,77.14
2022-12-03T17:41:38.249Z,77.03
2022-12-03T17:44:10.218Z,77.45
2022-12-03T17:46:38.349Z,77.68
2022-12-03T17:49:05.277Z,77.31
2022-12-03T17:51:32.080Z,77.55
2022-12-03T17:54:00.716Z,77.04
2022-12-03T17:56:27.478Z,77.18
2022-12-03T17:58:54.273Z,77.40
2022-12-03T18:01:21.196Z,76.68
2022-12-03T18:03:48.012Z,77.08
2022-12-03T18:06:14.797Z,77.37
2022-12-03T18:08:41.576Z,77.33
2022-12-03T18:11:08.458Z,77.77
2022-12-03T18:13:35.207Z,77.00
2022-12-03T18:16:02.119Z,77.24
2022-12-03T18:18:28.876Z,76.23
2022-12-03T18:20:55.558Z,76.67
2022-12-03T18:23:22.299Z,76.96
2022-12-03T18:25:49.049Z,76.90
2022-12-03T18:28:16.145Z,77.17
2022-12-03T18:30:47.540Z,77.27
2022-12-03T18:33:17.519Z,77.31
2022-12-03T18:35:44.553Z,76.37
2022-12-03T18:38:15.645Z,76.26
2022-12-03T18:40:43.313Z,76.20
2022-12-03T18:43:19.138Z,77.12
2022-12-03T18:45:45.915Z,76.80
2022-12-03T18:48:14.520Z,77.57
2022-12-03T18:50:41.511Z,77.20
2022-12-03T18:53:16.855Z,77.02
2022-12-03T18:55:45.573Z,76.96
2022-12-03T18:58:12.722Z,75.54
2022-12-03T19:00:39.884Z,76.54
2022-12-03T19:03:07.011Z,76.54
2022-12-03T19:05:34.962Z,77.09
2022-12-03T19:08:02.350Z,77.02
2022-12-03T19:10:29.183Z,76.68
2022-12-03T19:12:55.907Z,76.86
2022-12-03T19:15:23.091Z,76.77
2022-12-03T19:17:50.010Z,77.62
2022-12-03T19:20:17.066Z,76.82
2022-12-03T19:22:43.814Z,77.24
2022-12-03T19:25:10.590Z,76.20
2022-12-03T19:27:37.378Z,77.39
2022-12-03T19:30:04.838Z,76.88
2022-12-03T19:32:31.649Z,76.59
2022-12-03T19:34:58.477Z,76.25
2022-12-03T19:37:25.202Z,77.40
2022-12-03T19:39:55.459Z,77.25
2022-12-03T19:42:22.445Z,77.51
2022-12-03T19:44:49.158Z,77.71
2022-12-03T19:47:15.956Z,77.58
2022-12-03T19:49:42.749Z,77.78
2022-12-03T19:52:09.539Z,77.53
2022-12-03T19:54:36.409Z,77.58
2022-12-03T19:57:03.317Z,77.52
2022-12-03T19:59:30.053Z,77.84
2022-12-03T20:01:56.908Z,77.50
2022-12-03T20:04:23.707Z,77.45
2022-12-03T20:06:50.508Z,77.16
2022-12-03T20:09:18.032Z,77.33
2022-12-03T20:11:45.943Z,76.92
2022-12-03T20:14:15.365Z,76.88
2022-12-03T20:16:42.738Z,76.96
2022-12-03T20:19:12.534Z,77.83
2022-12-03T20:21:39.564Z,77.17
2022-12-03T20:24:07.166Z,77.29
2022-12-03T20:26:34.601Z,78.00
2022-12-03T20:29:01.599Z,77.45
2022-12-03T20:31:30.613Z,77.05
2022-12-03T20:33:59.804Z,77.33
2022-12-03T20:36:28.156Z,76.94
2022-12-03T20:38:59.828Z,76.62
2022-12-03T20:41:28.304Z,76.55
2022-12-03T20:43:55.228Z,76.62
2022-12-03T20:46:25.841Z,76.88
2022-12-03T20:48:54.151Z,76.96
2022-12-03T20:51:23.272Z,77.03
2022-12-03T20:53:50.111Z,77.43
2022-12-03T20:56:20.342Z,76.42
2022-12-03T20:58:50.278Z,76.75
2022-12-03T21:01:22.135Z,76.16
2022-12-03T21:03:49.970Z,76.44
2022-12-03T21:06:17.235Z,76.21
2022-12-03T21:08:44.756Z,75.74
2022-12-03T21:11:18.265Z,75.77
2022-12-03T21:13:47.620Z,75.63
2022-12-03T21:16:29.847Z,75.88
2022-12-03T21:19:07.390Z,75.85
2022-12-03T21:21:35.570Z,76.08
2022-12-03T21:24:02.387Z,76.27
2022-12-03T21:26:29.217Z,76.35
2022-12-03T21:28:56.143Z,76.18
2022-12-03T21:31:25.886Z,76.41
2022-12-03T21:33:54.396Z,76.21
2022-12-03T21:36:21.610Z,75.93
2022-12-03T21:38:48.781Z,76.21
2022-12-03T21:41:15.903Z,75.72
2022-12-03T21:43:43.406Z,76.94
2022-12-03T21:47:10.255Z,75.82
2022-12-03T21:49:24.885Z,74.31
2022-12-03T21:51:51.862Z,73.85
2022-12-03T21:54:19.060Z,74.87
2022-12-03T21:56:45.816Z,75.22
2022-12-03T21:59:12.619Z,75.50
2022-12-03T22:01:42.852Z,75.90
2022-12-03T22:04:13.647Z,76.80
2022-12-03T22:06:40.404Z,77.00
2022-12-03T22:09:07.243Z,77.56
2022-12-03T22:11:33.990Z,78.23
2022-12-03T22:14:00.946Z,78.34
2022-12-03T22:16:27.701Z,78.32
2022-12-03T22:18:54.613Z,78.04
2022-12-03T22:21:46.539Z,77.35
2022-12-03T22:24:39.416Z,77.65
2022-12-03T22:27:06.279Z,77.33
2022-12-03T22:29:33.139Z,78.34
2022-12-03T22:31:59.901Z,78.99
2022-12-03T22:34:26.673Z,79.92
2022-12-03T22:36:53.460Z,79.80
2022-12-03T22:39:20.197Z,80.73
2022-12-03T22:42:05.740Z,80.34
2022-12-03T22:44:36.580Z,81.16
2022-12-03T22:47:03.766Z,80.81
2022-12-03T22:49:30.513Z,81.65
2022-12-03T22:51:57.300Z,81.44
2022-12-03T22:54:24.446Z,82.03
2022-12-03T22:56:51.219Z,81.74
2022-12-03T22:59:17.965Z,81.17
2022-12-03T23:01:44.781Z,80.46
2022-12-03T23:04:12.257Z,80.26
2022-12-03T23:06:39.493Z,81.30
2022-12-03T23:09:08.005Z,81.29
2022-12-03T23:11:35.315Z,81.27
2022-12-03T23:14:02.343Z,81.30
2022-12-03T23:16:31.739Z,81.58
2022-12-03T23:19:00.258Z,81.18
2022-12-03T23:21:30.749Z,80.92
2022-12-03T23:23:59.258Z,80.85
2022-12-03T23:26:26.321Z,80.02
2022-12-03T23:28:53.165Z,79.55
2022-12-03T23:31:21.179Z,79.41
2022-12-03T23:33:48.063Z,80.12
2022-12-03T23:36:15.470Z,79.55
2022-12-03T23:38:42.441Z,80.27
2022-12-03T23:41:11.915Z,80.58
2022-12-03T23:43:39.117Z,80.53
2022-12-03T23:46:20.076Z,79.63
2022-12-03T23:48:46.925Z,80.13
2022-12-03T23:51:16.664Z,79.57
2022-12-03T23:53:43.601Z,79.38
2022-12-03T23:56:12.971Z,79.76
2022-12-03T23:58:40.002Z,79.13
